Return to the overview of this dataset or to the list of all FOR816 datasets.


Value filter for entity: Microclimate(id: 428) of dataset: Forest microclimate ECSF tree T122 upper canopy (z5) (dsid: 645)

Select attribute to work with:



Order by

Aggregate by date/time

on attribute:

Draw graph of subset

    x     y1     y2  
     
Ta_2m (air temperature in 2m)
Huma_2m (Air humidity 2m)
datetime (Date and Time)

Results:

page: 1 / 85 , page size: , max results: 4220

Ta_2m Huma_2m datetime
15.19 99.0 2004-11-02 23:00:00
15.02 100.0 2004-11-02 23:30:00
14.97 100.3 2004-11-03 00:00:00
14.97 100.0 2004-11-03 00:30:00
14.92 100.7 2004-11-03 01:00:00
14.87 100.7 2004-11-03 01:30:00
14.85 100.7 2004-11-03 02:00:00
14.8 100.7 2004-11-03 02:30:00
14.78 100.7 2004-11-03 03:00:00
14.78 100.7 2004-11-03 03:30:00
14.75 100.7 2004-11-03 04:00:00
14.78 100.7 2004-11-03 04:30:00
14.78 100.7 2004-11-03 05:00:00
14.75 101.0 2004-11-03 05:30:00
14.75 100.7 2004-11-03 06:00:00
14.78 101.0 2004-11-03 06:30:00
15.09 100.7 2004-11-03 07:00:00
15.52 100.7 2004-11-03 07:30:00
15.83 100.7 2004-11-03 08:00:00
16.02 100.7 2004-11-03 08:30:00
16.28 100.0 2004-11-03 09:00:00
16.47 97.9 2004-11-03 09:30:00
16.93 95.8 2004-11-03 10:00:00
17.5 93.8 2004-11-03 10:30:00
18.19 83.2 2004-11-03 11:00:00
18.97 82.3 2004-11-03 11:30:00
19.97 82.7 2004-11-03 12:00:00
18.99 82.3 2004-11-03 12:30:00
19.52 81.8 2004-11-03 13:00:00
19.07 86.3 2004-11-03 13:30:00
18.71 85.9 2004-11-03 14:00:00
19.83 77.1 2004-11-03 14:30:00
21.59 67.7 2004-11-03 15:00:00
22.93 65.1 2004-11-03 15:30:00
22.12 67.7 2004-11-03 16:00:00
20.21 79.0 2004-11-03 16:30:00
18.97 83.7 2004-11-03 17:00:00
18.14 89.8 2004-11-03 17:30:00
17.31 91.4 2004-11-03 18:00:00
16.88 94.6 2004-11-03 18:30:00
16.47 95.8 2004-11-03 19:00:00
16.21 96.5 2004-11-03 19:30:00
16.14 95.4 2004-11-03 20:00:00
16.07 96.5 2004-11-03 20:30:00
15.85 97.2 2004-11-03 21:00:00
15.66 97.6 2004-11-03 21:30:00
15.54 97.9 2004-11-03 22:00:00
15.42 98.3 2004-11-03 22:30:00
15.33 98.7 2004-11-03 23:00:00
15.26 99.0 2004-11-03 23:30:00

page: 1 / 85 , max results: 4220


Return to the overview of this dataset or to the list of all FOR816 datasets.



Quick search

  • Publications:
  • Datasets: